Terminal Aerodrome Forecast
Issued by NWS New Orleans/Baton Rouge, LA

Home | Current Version | Previous Version | Text Only | Print | Product List | Glossary On
Versions: 1 2 3 4 5 6 7 8 9 10 11 12 13 14 15 16 17
000
FTUS44 KLIX 241130
TAFNEW
TAF
KNEW 241130Z 2412/2512 25005KT P6SM VCSH SCT035
     FM241800 15005KT P6SM VCTS SCT030CB
     FM250100 VRB03KT P6SM SCT030 BKN070=

USA.gov is the U.S. government's official web portal to all federal, state and local government web resources and services.